Time;durP1;ratioP1;P1;durP2;ratioP2;P2;SDS_P1;SDS_P2;PMS_P1;PMS_P2;Temp;Humidity;BMP_temperature;BMP_pressure;BME280_temperature;BME280_humidity;BME280_pressure;Samples;Min_cycle;Max_cycle;Signal;HPM_P1;HPM_P2
2022/01/24 00:00:13;;;;;;;11.07;8.43;;;;;;;;;;5057027;28;20102;-46
2022/01/24 00:02:38;;;;;;;13.00;7.78;;;;;;;;;;5056301;28;20063;-43
2022/01/24 00:05:04;;;;;;;10.88;5.75;;;;;;;;;;5056839;28;20052;-43
2022/01/24 00:07:31;;;;;;;25.88;14.75;;;;;;;;;;5057257;28;20489;-42
2022/01/24 00:09:59;;;;;;;11.07;8.77;;;;;;;;;;5054856;28;20138;-45
2022/01/24 00:27:55;;;;;;;8.35;6.00;;;;;;;;;;5055849;28;20069;-44
2022/01/24 00:30:21;;;;;;;13.15;5.43;;;;;;;;;;5056898;28;20028;-45
2022/01/24 00:32:46;;;;;;;4.70;3.65;;;;;;;;;;5055294;28;20416;-46
2022/01/24 00:35:12;;;;;;;2.95;2.63;;;;;;;;;;5056261;28;20074;-43
2022/01/24 00:37:38;;;;;;;4.28;2.50;;;;;;;;;;5056854;28;20093;-44
2022/01/24 00:40:03;;;;;;;9.07;4.85;;;;;;;;;;5055912;28;20020;-47
2022/01/24 00:42:40;;;;;;;6.32;3.90;;;;;;;;;;5059457;28;20048;-45
2022/01/24 00:53:30;;;;;;;4.78;3.35;;;;;;;;;;5056441;28;20028;-47
2022/01/24 00:55:55;;;;;;;5.57;3.33;;;;;;;;;;5056715;28;20048;-44
2022/01/24 00:58:20;;;;;;;8.80;4.13;;;;;;;;;;5057494;28;20401;-42
2022/01/24 01:00:46;;;;;;;11.25;4.80;;;;;;;;;;5056296;28;20035;-44
2022/01/24 01:03:11;;;;;;;4.22;2.85;;;;;;;;;;5060797;28;20381;-46
2022/01/24 01:18:58;;;;;;;8.65;5.72;;;;;;;;;;5049893;28;20035;-45
2022/01/24 01:21:24;;;;;;;6.32;3.78;;;;;;;;;;5048682;28;20020;-45
2022/01/24 01:23:53;;;;;;;4.95;3.38;;;;;;;;;;5050806;28;20017;-44
2022/01/24 01:26:27;;;;;;;8.80;4.60;;;;;;;;;;5052032;28;20025;-42
2022/01/24 01:29:08;;;;;;;9.15;3.55;;;;;;;;;;5055888;28;20028;-44
2022/01/24 01:55:38;;;;;;;5.35;2.45;;;;;;;;;;5055480;28;20053;-45
2022/01/24 01:58:07;;;;;;;2.72;1.60;;;;;;;;;;5052856;28;20550;-47
2022/01/24 02:00:34;;;;;;;4.13;2.35;;;;;;;;;;5051138;28;20025;-44
2022/01/24 02:02:59;;;;;;;2.35;1.58;;;;;;;;;;5054476;28;20025;-45
2022/01/24 02:05:25;;;;;;;6.95;2.47;;;;;;;;;;5051211;28;20025;-42
2022/01/24 02:07:51;;;;;;;6.05;3.47;;;;;;;;;;5053364;28;20081;-42
2022/01/24 02:10:17;;;;;;;6.78;4.07;;;;;;;;;;5057008;28;20029;-47
2022/01/24 02:12:43;;;;;;;7.57;4.63;;;;;;;;;;5051053;28;20029;-44
2022/01/24 02:15:09;;;;;;;9.23;5.15;;;;;;;;;;5057699;28;20023;-43
2022/01/24 02:17:58;;;;;;;5.10;4.25;;;;;;;;;;5049059;28;20071;-47
2022/01/24 02:25:57;;;;;;;6.93;4.28;;;;;;;;;;5045042;28;20124;-43
2022/01/24 02:28:24;;;;;;;3.90;3.30;;;;;;;;;;5053851;28;20063;-46
2022/01/24 02:33:19;;;;;;;5.07;2.50;;;;;;;;;;5052968;28;20036;-43
2022/01/24 02:35:45;;;;;;;10.45;4.13;;;;;;;;;;5055305;28;20016;-42
2022/01/24 02:38:33;;;;;;;3.65;2.50;;;;;;;;;;5053218;28;20108;-42
2022/01/24 02:49:11;;;;;;;7.50;3.33;;;;;;;;;;5059483;28;20055;-44
2022/01/24 02:51:48;;;;;;;3.88;2.70;;;;;;;;;;5057321;28;20016;-44
2022/01/24 02:54:25;;;;;;;7.97;2.78;;;;;;;;;;5058591;28;20017;-44
2022/01/24 02:56:50;;;;;;;3.88;1.55;;;;;;;;;;5060571;28;20049;-43
2022/01/24 02:59:16;;;;;;;3.20;2.17;;;;;;;;;;5058357;28;20031;-43
2022/01/24 03:01:42;;;;;;;5.22;1.60;;;;;;;;;;5057884;28;20025;-44
2022/01/24 03:04:08;;;;;;;4.82;2.25;;;;;;;;;;5057586;28;20025;-44
2022/01/24 03:06:33;;;;;;;4.93;1.83;;;;;;;;;;5056752;28;20513;-47
2022/01/24 03:08:58;;;;;;;4.43;2.55;;;;;;;;;;5061221;28;20021;-44
2022/01/24 03:11:27;;;;;;;8.55;2.40;;;;;;;;;;5058287;28;20024;-47
2022/01/24 03:13:53;;;;;;;2.78;1.80;;;;;;;;;;5059354;28;20024;-45
2022/01/24 03:16:18;;;;;;;2.92;2.42;;;;;;;;;;5059374;28;20540;-44
2022/01/24 03:18:43;;;;;;;6.85;4.95;;;;;;;;;;5059207;28;20517;-49
2022/01/24 03:21:08;;;;;;;5.82;4.03;;;;;;;;;;5060844;28;20020;-45
2022/01/24 03:23:34;;;;;;;5.93;3.85;;;;;;;;;;5055099;28;20527;-46
2022/01/24 03:25:59;;;;;;;8.93;5.13;;;;;;;;;;5059948;28;20039;-45
2022/01/24 03:28:25;;;;;;;6.18;4.22;;;;;;;;;;5058609;28;20021;-45
2022/01/24 03:30:50;;;;;;;7.68;4.88;;;;;;;;;;5057683;28;20020;-46
2022/01/24 03:33:15;;;;;;;5.50;4.00;;;;;;;;;;5057233;28;20149;-44
2022/01/24 03:35:43;;;;;;;7.95;4.32;;;;;;;;;;5054238;28;20394;-43
2022/01/24 03:38:09;;;;;;;4.03;3.47;;;;;;;;;;5056303;28;20025;-46
2022/01/24 03:40:35;;;;;;;9.40;4.45;;;;;;;;;;5055019;28;20021;-42
2022/01/24 03:43:00;;;;;;;4.18;3.15;;;;;;;;;;5053410;28;20440;-46
2022/01/24 03:45:58;;;;;;;9.52;4.85;;;;;;;;;;5054428;28;20103;-45
2022/01/24 03:48:25;;;;;;;5.55;3.25;;;;;;;;;;5056862;28;20068;-42
2022/01/24 03:50:50;;;;;;;5.50;3.25;;;;;;;;;;5058159;28;20043;-44
2022/01/24 03:53:16;;;;;;;5.25;2.75;;;;;;;;;;5055411;28;20545;-45
2022/01/24 03:55:41;;;;;;;4.43;2.58;;;;;;;;;;5057048;28;20061;-44
2022/01/24 03:58:06;;;;;;;2.65;2.15;;;;;;;;;;5052155;28;20071;-45
2022/01/24 04:00:32;;;;;;;4.40;2.63;;;;;;;;;;5059262;28;20021;-44
2022/01/24 04:02:57;;;;;;;2.63;1.85;;;;;;;;;;5058155;28;20092;-48
2022/01/24 04:05:23;;;;;;;4.28;2.78;;;;;;;;;;5056281;28;20580;-46
2022/01/24 04:07:48;;;;;;;4.75;2.35;;;;;;;;;;5057003;28;20090;-46
2022/01/24 04:10:17;;;;;;;6.43;2.83;;;;;;;;;;5058450;28;20478;-46
2022/01/24 04:12:43;;;;;;;3.45;2.35;;;;;;;;;;5056280;28;20017;-47
2022/01/24 04:15:13;;;;;;;3.45;2.17;;;;;;;;;;5055060;28;20032;-46
2022/01/24 04:17:44;;;;;;;5.18;2.50;;;;;;;;;;5054636;28;20644;-44
2022/01/24 04:22:55;;;;;;;4.97;3.08;;;;;;;;;;5057684;28;20503;-47
2022/01/24 04:25:23;;;;;;;3.72;2.20;;;;;;;;;;5058482;28;20086;-45
2022/01/24 04:27:50;;;;;;;6.88;3.22;;;;;;;;;;5059970;28;20048;-48
2022/01/24 04:30:15;;;;;;;4.47;3.05;;;;;;;;;;5057578;28;20032;-46
2022/01/24 04:32:41;;;;;;;2.85;2.20;;;;;;;;;;5056147;28;20048;-49
2022/01/24 04:35:06;;;;;;;1.90;1.30;;;;;;;;;;5057888;28;20048;-42
2022/01/24 04:37:31;;;;;;;4.32;1.95;;;;;;;;;;5054910;28;20095;-50
2022/01/24 04:39:57;;;;;;;5.85;2.10;;;;;;;;;;5053362;28;20473;-44
2022/01/24 04:42:31;;;;;;;3.72;1.90;;;;;;;;;;5052555;28;20074;-42
2022/01/24 04:55:53;;;;;;;10.55;5.22;;;;;;;;;;5053131;28;20153;-43
2022/01/24 04:58:18;;;;;;;8.82;6.38;;;;;;;;;;5056267;28;20092;-42
2022/01/24 05:00:44;;;;;;;7.32;5.43;;;;;;;;;;5054582;28;20389;-45
2022/01/24 05:03:09;;;;;;;10.77;5.97;;;;;;;;;;5056935;28;20035;-43
2022/01/24 05:05:35;;;;;;;7.35;4.38;;;;;;;;;;5059415;28;20040;-42
2022/01/24 05:08:04;;;;;;;6.03;4.25;;;;;;;;;;5054393;28;20132;-42
2022/01/24 05:10:51;;;;;;;5.75;4.25;;;;;;;;;;5056518;28;20455;-44
2022/01/24 05:24:30;;;;;;;6.22;3.60;;;;;;;;;;5033741;28;20036;-42
2022/01/24 05:26:56;;;;;;;6.10;3.03;;;;;;;;;;5054715;28;20009;-43
2022/01/24 05:29:24;;;;;;;4.40;3.97;;;;;;;;;;5052133;28;20028;-47
2022/01/24 05:31:49;;;;;;;3.70;3.10;;;;;;;;;;5060361;28;20111;-41
2022/01/24 05:34:15;;;;;;;4.25;3.00;;;;;;;;;;5060674;28;20017;-41
2022/01/24 05:36:40;;;;;;;5.43;2.83;;;;;;;;;;5055656;28;20846;-43
2022/01/24 05:39:05;;;;;;;2.25;2.00;;;;;;;;;;5058426;28;20470;-45
2022/01/24 05:41:31;;;;;;;4.93;2.40;;;;;;;;;;5053487;28;20040;-43
2022/01/24 05:43:56;;;;;;;11.50;7.88;;;;;;;;;;5056953;28;20711;-47
2022/01/24 05:46:22;;;;;;;8.77;3.78;;;;;;;;;;5055384;28;20025;-44
2022/01/24 05:48:47;;;;;;;6.68;4.55;;;;;;;;;;5052103;28;20092;-44
2022/01/24 05:51:13;;;;;;;5.63;4.18;;;;;;;;;;5057572;28;20040;-42
2022/01/24 05:53:38;;;;;;;6.22;3.67;;;;;;;;;;5055795;28;20050;-48
2022/01/24 05:56:03;;;;;;;1.98;1.65;;;;;;;;;;5052089;28;20045;-44
2022/01/24 05:58:29;;;;;;;5.43;2.70;;;;;;;;;;5055279;28;20456;-44
2022/01/24 06:00:54;;;;;;;4.72;2.25;;;;;;;;;;5054678;28;20017;-46
2022/01/24 06:03:20;;;;;;;11.85;6.35;;;;;;;;;;5051861;28;20028;-46
2022/01/24 06:05:45;;;;;;;6.65;3.85;;;;;;;;;;5059130;28;20028;-52
2022/01/24 06:08:11;;;;;;;7.95;3.55;;;;;;;;;;5057102;28;20040;-51
2022/01/24 06:10:38;;;;;;;5.78;3.92;;;;;;;;;;5054684;28;20021;-47
2022/01/24 06:13:03;;;;;;;5.07;2.72;;;;;;;;;;5052873;28;20028;-45
2022/01/24 06:15:28;;;;;;;6.75;3.15;;;;;;;;;;5054173;28;20025;-45
2022/01/24 06:17:54;;;;;;;5.38;2.95;;;;;;;;;;5054849;28;20041;-48
2022/01/24 06:20:19;;;;;;;7.68;4.72;;;;;;;;;;5054050;28;20020;-47
2022/01/24 06:22:44;;;;;;;4.53;3.08;;;;;;;;;;5051518;28;20040;-48
2022/01/24 06:25:10;;;;;;;11.20;6.15;;;;;;;;;;5060747;28;20052;-50
2022/01/24 06:27:36;;;;;;;8.48;5.78;;;;;;;;;;5058803;28;20772;-46
2022/01/24 06:30:01;;;;;;;11.57;6.38;;;;;;;;;;5056565;28;20028;-45
2022/01/24 06:32:26;;;;;;;12.63;5.47;;;;;;;;;;5058186;28;20590;-48
2022/01/24 06:34:52;;;;;;;8.85;5.05;;;;;;;;;;5058155;28;20579;-50
2022/01/24 06:37:17;;;;;;;12.45;6.78;;;;;;;;;;5062848;28;20094;-46
2022/01/24 06:39:42;;;;;;;5.93;4.68;;;;;;;;;;5060583;28;20020;-49
2022/01/24 06:44:33;;;;;;;16.77;5.15;;;;;;;;;;5062541;28;20060;-46
2022/01/24 06:46:58;;;;;;;7.45;4.72;;;;;;;;;;5058539;28;20017;-46
2022/01/24 06:49:24;;;;;;;16.48;9.65;;;;;;;;;;5058279;28;20021;-45
2022/01/24 06:51:49;;;;;;;13.05;6.22;;;;;;;;;;5059201;28;20096;-45
2022/01/24 06:54:14;;;;;;;7.13;5.90;;;;;;;;;;5057791;28;20022;-46
2022/01/24 06:56:39;;;;;;;8.93;6.97;;;;;;;;;;5058676;28;20114;-49
2022/01/24 06:59:07;;;;;;;21.05;10.65;;;;;;;;;;5062107;28;20386;-49
2022/01/24 07:01:32;;;;;;;8.55;7.57;;;;;;;;;;5057229;28;20121;-46
2022/01/24 07:03:57;;;;;;;7.88;6.38;;;;;;;;;;5061914;28;20091;-46
2022/01/24 07:06:23;;;;;;;11.32;7.13;;;;;;;;;;5062697;28;20120;-46
2022/01/24 07:08:48;;;;;;;12.85;8.95;;;;;;;;;;5056920;28;20029;-45
2022/01/24 07:11:13;;;;;;;10.00;7.90;;;;;;;;;;5058385;28;20032;-45
2022/01/24 07:13:39;;;;;;;11.95;7.88;;;;;;;;;;5058514;28;20541;-48
2022/01/24 07:16:06;;;;;;;12.93;11.43;;;;;;;;;;5059801;28;20016;-47
2022/01/24 07:20:58;;;;;;;15.20;11.05;;;;;;;;;;5059614;28;20016;-45
2022/01/24 07:23:23;;;;;;;11.27;9.30;;;;;;;;;;5057068;28;20020;-47
2022/01/24 07:25:48;;;;;;;17.05;14.52;;;;;;;;;;5056335;28;20023;-46
2022/01/24 07:28:14;;;;;;;13.90;11.60;;;;;;;;;;5058710;28;20021;-49
2022/01/24 07:30:39;;;;;;;14.35;10.63;;;;;;;;;;5058664;28;20029;-45
2022/01/24 07:33:05;;;;;;;12.85;9.27;;;;;;;;;;5055744;28;20021;-46
2022/01/24 07:35:30;;;;;;;15.18;13.15;;;;;;;;;;5056757;28;20013;-47
2022/01/24 07:37:55;;;;;;;23.40;14.70;;;;;;;;;;5058598;28;20021;-47
2022/01/24 07:40:22;;;;;;;18.73;12.90;;;;;;;;;;5057773;28;20433;-46
2022/01/24 07:45:43;;;;;;;15.48;13.77;;;;;;;;;;5048282;28;20041;-44
2022/01/24 07:48:09;;;;;;;21.00;18.10;;;;;;;;;;5056793;28;20033;-47
2022/01/24 07:50:36;;;;;;;92.85;60.88;;;;;;;;;;5056271;28;20028;-47
2022/01/24 07:53:02;;;;;;;45.00;28.48;;;;;;;;;;5060412;28;20447;-44
2022/01/24 07:55:28;;;;;;;22.08;16.80;;;;;;;;;;5052524;28;20489;-47
2022/01/24 07:57:53;;;;;;;23.50;16.48;;;;;;;;;;5055406;28;20013;-48
2022/01/24 08:00:19;;;;;;;26.15;18.30;;;;;;;;;;5059732;28;20027;-44
2022/01/24 08:02:44;;;;;;;19.25;15.00;;;;;;;;;;5061715;28;20020;-44
2022/01/24 08:05:10;;;;;;;44.83;24.42;;;;;;;;;;5054557;28;20105;-51
2022/01/24 08:07:36;;;;;;;37.08;23.83;;;;;;;;;;5059600;28;20107;-48
2022/01/24 08:10:02;;;;;;;31.95;25.75;;;;;;;;;;5057998;28;20571;-52
2022/01/24 08:12:27;;;;;;;22.75;18.38;;;;;;;;;;5059504;28;20036;-49
2022/01/24 08:14:53;;;;;;;22.13;15.65;;;;;;;;;;5059826;28;20021;-47
2022/01/24 08:17:18;;;;;;;17.10;15.20;;;;;;;;;;5057695;28;20253;-48
2022/01/24 08:19:44;;;;;;;70.07;51.10;;;;;;;;;;5057782;28;20389;-48
2022/01/24 08:22:12;;;;;;;44.83;34.65;;;;;;;;;;5054325;28;20103;-47
2022/01/24 08:24:37;;;;;;;26.13;23.35;;;;;;;;;;5058333;28;20024;-43
2022/01/24 08:27:02;;;;;;;32.13;23.92;;;;;;;;;;5058059;28;20024;-42
2022/01/24 08:29:28;;;;;;;37.03;27.80;;;;;;;;;;5058545;28;20127;-46
2022/01/24 08:31:53;;;;;;;26.42;23.75;;;;;;;;;;5054058;28;20405;-43
2022/01/24 08:34:18;;;;;;;49.03;26.27;;;;;;;;;;5058134;28;20028;-43
2022/01/24 08:36:45;;;;;;;31.33;27.52;;;;;;;;;;5057799;28;20122;-45
2022/01/24 08:39:10;;;;;;;35.53;31.20;;;;;;;;;;5057505;28;20023;-41
2022/01/24 08:44:21;;;;;;;37.42;26.25;;;;;;;;;;5057873;28;20102;-45
2022/01/24 08:46:47;;;;;;;30.50;27.27;;;;;;;;;;5053115;28;20025;-42
2022/01/24 08:49:12;;;;;;;45.90;32.75;;;;;;;;;;5055638;28;20095;-45
2022/01/24 08:51:38;;;;;;;41.72;36.45;;;;;;;;;;5054240;28;20029;-49
2022/01/24 08:54:04;;;;;;;65.90;44.08;;;;;;;;;;5058261;28;20023;-52
2022/01/24 08:56:29;;;;;;;57.85;44.88;;;;;;;;;;5054845;28;20135;-49
2022/01/24 08:58:55;;;;;;;48.05;36.50;;;;;;;;;;5056208;28;20112;-46
2022/01/24 09:01:20;;;;;;;45.72;37.63;;;;;;;;;;5058018;28;20112;-45
2022/01/24 09:03:45;;;;;;;105.25;93.80;;;;;;;;;;5054393;28;20035;-49
2022/01/24 09:06:11;;;;;;;95.45;80.82;;;;;;;;;;5049856;28;20029;-46
2022/01/24 09:08:37;;;;;;;77.15;66.82;;;;;;;;;;5052388;28;20072;-51
2022/01/24 09:11:03;;;;;;;67.35;60.42;;;;;;;;;;5054706;28;20461;-48
2022/01/24 09:13:30;;;;;;;70.70;61.45;;;;;;;;;;5056894;28;20484;-49
2022/01/24 09:15:55;;;;;;;89.30;71.53;;;;;;;;;;5055604;28;20024;-48
2022/01/24 09:18:21;;;;;;;73.43;65.97;;;;;;;;;;5056009;28;20460;-49
2022/01/24 09:20:49;;;;;;;130.70;78.18;;;;;;;;;;5053038;28;20481;-46
2022/01/24 09:23:14;;;;;;;59.38;52.97;;;;;;;;;;5054489;28;20020;-44
2022/01/24 09:25:39;;;;;;;53.10;47.38;;;;;;;;;;5052511;28;20037;-49
2022/01/24 09:28:05;;;;;;;59.22;47.28;;;;;;;;;;5054570;28;20327;-49
2022/01/24 09:30:30;;;;;;;47.55;41.10;;;;;;;;;;5056545;28;20084;-46
2022/01/24 09:32:55;;;;;;;64.20;48.40;;;;;;;;;;5055622;28;20063;-49
2022/01/24 09:35:21;;;;;;;75.10;47.03;;;;;;;;;;5055961;28;20040;-48
2022/01/24 09:37:47;;;;;;;74.93;47.47;;;;;;;;;;5057425;28;20028;-49
2022/01/24 09:40:15;;;;;;;39.70;33.85;;;;;;;;;;5053789;28;20122;-48
2022/01/24 09:42:40;;;;;;;43.70;33.60;;;;;;;;;;5053133;28;20025;-50
2022/01/24 09:45:07;;;;;;;37.38;31.75;;;;;;;;;;5053312;28;20626;-48
2022/01/24 09:47:32;;;;;;;38.33;30.45;;;;;;;;;;5051528;28;20028;-49
2022/01/24 09:49:57;;;;;;;61.88;36.60;;;;;;;;;;5055368;28;20400;-51
2022/01/24 09:52:23;;;;;;;59.40;43.88;;;;;;;;;;5054165;28;20028;-49
2022/01/24 09:54:48;;;;;;;63.80;51.95;;;;;;;;;;5054909;28;20098;-50
2022/01/24 09:57:13;;;;;;;43.47;37.25;;;;;;;;;;5050467;28;20481;-54
2022/01/24 09:59:39;;;;;;;42.63;37.95;;;;;;;;;;5056680;28;20028;-49
2022/01/24 10:02:04;;;;;;;54.97;39.90;;;;;;;;;;5055058;28;20055;-51
2022/01/24 10:04:30;;;;;;;57.97;42.97;;;;;;;;;;5053193;28;20032;-53
2022/01/24 10:06:55;;;;;;;59.22;40.47;;;;;;;;;;5055115;28;20028;-52
2022/01/24 10:09:41;;;;;;;43.72;36.47;;;;;;;;;;5052495;28;20931;-51
2022/01/24 10:12:19;;;;;;;43.40;36.75;;;;;;;;;;5050477;28;20032;-53
2022/01/24 10:17:33;;;;;;;42.10;33.95;;;;;;;;;;5051190;28;20130;-50
2022/01/24 10:20:15;;;;;;;71.40;55.75;;;;;;;;;;5054907;28;20039;-50
2022/01/24 10:22:40;;;;;;;44.70;40.05;;;;;;;;;;5052025;28;20033;-53
2022/01/24 10:25:08;;;;;;;55.75;39.95;;;;;;;;;;5055819;28;20039;-52
2022/01/24 10:27:33;;;;;;;59.80;47.33;;;;;;;;;;5051291;28;20179;-48
2022/01/24 10:30:17;;;;;;;66.97;47.38;;;;;;;;;;5051460;28;20111;-51
2022/01/24 10:32:42;;;;;;;65.32;42.97;;;;;;;;;;5051103;28;20102;-51
2022/01/24 10:35:26;;;;;;;55.58;39.55;;;;;;;;;;5053286;28;20020;-53
2022/01/24 10:38:13;;;;;;;58.33;48.20;;;;;;;;;;5048812;28;20041;-51
2022/01/24 10:40:52;;;;;;;73.97;48.08;;;;;;;;;;5049583;28;20451;-53
2022/01/24 10:43:18;;;;;;;260.25;187.63;;;;;;;;;;5048893;28;20308;-51
2022/01/24 10:45:45;;;;;;;263.60;184.00;;;;;;;;;;5052728;28;20054;-52
2022/01/24 10:48:10;;;;;;;186.40;141.95;;;;;;;;;;5050135;28;20656;-52
2022/01/24 10:50:35;;;;;;;143.30;111.22;;;;;;;;;;5054513;28;20025;-50
2022/01/24 10:53:12;;;;;;;145.43;112.82;;;;;;;;;;5049810;28;20025;-52
2022/01/24 10:55:39;;;;;;;103.07;75.82;;;;;;;;;;5052042;28;20401;-50
2022/01/24 10:58:06;;;;;;;82.63;60.85;;;;;;;;;;5053072;28;20158;-46
2022/01/24 11:00:32;;;;;;;40.60;31.83;;;;;;;;;;5051328;28;20033;-48
2022/01/24 11:02:59;;;;;;;44.63;36.17;;;;;;;;;;5051496;28;20024;-47
2022/01/24 11:05:27;;;;;;;49.33;37.90;;;;;;;;;;5047963;28;20025;-52
2022/01/24 11:07:54;;;;;;;60.72;44.13;;;;;;;;;;5051232;28;20107;-49
2022/01/24 11:10:20;;;;;;;41.45;29.23;;;;;;;;;;5054535;28;20051;-48
2022/01/24 11:12:45;;;;;;;46.72;37.05;;;;;;;;;;5055818;28;20159;-51
2022/01/24 11:15:11;;;;;;;40.38;30.00;;;;;;;;;;5056192;28;20025;-50
2022/01/24 11:17:37;;;;;;;32.53;28.70;;;;;;;;;;5057546;28;20995;-45
2022/01/24 11:20:03;;;;;;;35.55;29.55;;;;;;;;;;5054662;28;20112;-50
2022/01/24 11:22:32;;;;;;;57.50;38.67;;;;;;;;;;5057657;28;20500;-49
2022/01/24 11:25:01;;;;;;;43.72;39.20;;;;;;;;;;5055338;28;20045;-48
2022/01/24 11:27:27;;;;;;;70.65;52.42;;;;;;;;;;5054564;28;20028;-48
2022/01/24 11:29:55;;;;;;;65.03;48.35;;;;;;;;;;5053464;28;20504;-53
2022/01/24 11:32:20;;;;;;;51.08;44.65;;;;;;;;;;5056077;28;20031;-48
2022/01/24 11:34:49;;;;;;;53.95;46.47;;;;;;;;;;5060337;28;20017;-53
2022/01/24 11:37:30;;;;;;;62.25;53.50;;;;;;;;;;5056126;28;20044;-51
2022/01/24 11:39:55;;;;;;;65.32;55.08;;;;;;;;;;5055311;28;20028;-51
2022/01/24 11:42:28;;;;;;;62.92;48.20;;;;;;;;;;5055668;28;20397;-50
2022/01/24 11:44:55;;;;;;;45.25;40.03;;;;;;;;;;5054528;28;20085;-51
2022/01/24 11:47:22;;;;;;;64.05;48.10;;;;;;;;;;5058321;28;20279;-50
2022/01/24 11:49:52;;;;;;;56.17;49.65;;;;;;;;;;5055117;28;20036;-50
2022/01/24 11:52:18;;;;;;;58.35;46.38;;;;;;;;;;5059108;28;20347;-49
2022/01/24 11:57:22;;;;;;;94.90;66.68;;;;;;;;;;5055817;28;20515;-52
2022/01/24 11:59:47;;;;;;;93.28;71.88;;;;;;;;;;5056352;28;20020;-50
2022/01/24 12:02:15;;;;;;;82.45;72.38;;;;;;;;;;5055922;28;20116;-49
2022/01/24 12:04:50;;;;;;;61.53;52.08;;;;;;;;;;5058841;28;20031;-49
2022/01/24 12:07:16;;;;;;;76.63;66.72;;;;;;;;;;5057147;28;20047;-50
2022/01/24 12:09:42;;;;;;;79.40;70.90;;;;;;;;;;5056254;28;20125;-46
2022/01/24 12:12:34;;;;;;;62.10;55.40;;;;;;;;;;5058986;28;20107;-48
2022/01/24 12:14:59;;;;;;;77.53;63.30;;;;;;;;;;5058430;28;20100;-49
2022/01/24 12:18:01;;;;;;;81.30;68.03;;;;;;;;;;5055116;28;20468;-51
2022/01/24 12:20:29;;;;;;;65.43;58.17;;;;;;;;;;5037832;28;20042;-46
2022/01/24 12:22:54;;;;;;;79.68;59.03;;;;;;;;;;5053597;28;20036;-50
2022/01/24 12:25:39;;;;;;;50.10;41.40;;;;;;;;;;5057570;28;20037;-47
2022/01/24 12:28:15;;;;;;;57.10;50.97;;;;;;;;;;5051965;28;20545;-50
2022/01/24 12:30:59;;;;;;;64.50;56.35;;;;;;;;;;5055365;28;20083;-51
2022/01/24 12:33:29;;;;;;;58.35;42.63;;;;;;;;;;5057364;28;20024;-49
2022/01/24 12:35:54;;;;;;;62.70;50.40;;;;;;;;;;5057585;28;20017;-51
2022/01/24 12:38:19;;;;;;;63.70;51.35;;;;;;;;;;5055322;28;20492;-50
2022/01/24 12:40:45;;;;;;;56.05;49.85;;;;;;;;;;5058306;28;20036;-50
2022/01/24 12:43:18;;;;;;;59.38;48.28;;;;;;;;;;5058364;28;20073;-50
2022/01/24 12:48:29;;;;;;;49.08;42.47;;;;;;;;;;5056468;28;20518;-50
2022/01/24 12:50:57;;;;;;;60.55;41.72;;;;;;;;;;5054555;28;20012;-48
2022/01/24 12:53:22;;;;;;;46.28;39.78;;;;;;;;;;5051665;28;20033;-47
2022/01/24 12:56:01;;;;;;;46.83;35.55;;;;;;;;;;5056335;28;20550;-49
2022/01/24 12:58:41;;;;;;;35.67;30.92;;;;;;;;;;5056186;28;20090;-43
2022/01/24 13:01:18;;;;;;;48.72;34.97;;;;;;;;;;5053633;28;20024;-51
2022/01/24 13:03:47;;;;;;;49.80;39.58;;;;;;;;;;5053641;28;20021;-47
2022/01/24 13:06:14;;;;;;;48.30;38.95;;;;;;;;;;5057924;28;20025;-45
2022/01/24 13:08:39;;;;;;;39.13;28.25;;;;;;;;;;5050352;28;20040;-49
2022/01/24 13:11:09;;;;;;;53.55;46.55;;;;;;;;;;5053483;28;20503;-46
2022/01/24 13:13:40;;;;;;;61.53;47.45;;;;;;;;;;5047939;28;20085;-48
2022/01/24 13:21:58;;;;;;;9.10;6.20;;;;;;;;;;5052425;28;20101;-49
2022/01/24 13:24:24;;;;;;;17.33;7.78;;;;;;;;;;5052697;28;20037;-46
2022/01/24 13:26:49;;;;;;;5.45;3.85;;;;;;;;;;5053031;28;20510;-51
2022/01/24 13:29:14;;;;;;;11.55;8.40;;;;;;;;;;5053302;28;20025;-47
2022/01/24 13:31:39;;;;;;;21.88;13.13;;;;;;;;;;5056601;28;20021;-47
2022/01/24 13:34:09;;;;;;;42.72;30.35;;;;;;;;;;5054383;28;20163;-46
2022/01/24 13:36:34;;;;;;;30.52;25.13;;;;;;;;;;5055447;28;20021;-49
2022/01/24 13:38:59;;;;;;;32.33;23.55;;;;;;;;;;5050837;28;20023;-48
2022/01/24 13:41:25;;;;;;;25.98;21.65;;;;;;;;;;5055424;28;20099;-48
2022/01/24 13:43:54;;;;;;;22.20;20.02;;;;;;;;;;5049965;28;20035;-46
2022/01/24 13:46:20;;;;;;;18.50;16.67;;;;;;;;;;5059336;28;20013;-46
2022/01/24 13:48:45;;;;;;;28.52;15.13;;;;;;;;;;5055895;28;20159;-48
2022/01/24 13:51:12;;;;;;;30.08;20.08;;;;;;;;;;5057780;28;20024;-46
2022/01/24 13:53:39;;;;;;;21.25;14.45;;;;;;;;;;5056692;28;20036;-49
2022/01/24 13:56:22;;;;;;;31.83;23.60;;;;;;;;;;5057682;28;20044;-49
2022/01/24 13:59:00;;;;;;;24.27;18.83;;;;;;;;;;5056474;28;20101;-49
2022/01/24 14:01:25;;;;;;;33.13;25.17;;;;;;;;;;5054233;28;20179;-49
2022/01/24 14:03:54;;;;;;;25.23;20.10;;;;;;;;;;5057823;28;20510;-49
2022/01/24 14:06:20;;;;;;;44.80;24.10;;;;;;;;;;5054079;28;20552;-51
2022/01/24 14:08:45;;;;;;;13.85;10.18;;;;;;;;;;5058637;28;20028;-49
2022/01/24 14:11:13;;;;;;;20.25;7.70;;;;;;;;;;5056393;28;21662;-50
2022/01/24 14:13:39;;;;;;;10.00;7.50;;;;;;;;;;5057937;28;20094;-49
2022/01/24 14:16:10;;;;;;;10.32;5.57;;;;;;;;;;5057809;28;20473;-49
2022/01/24 14:18:36;;;;;;;4.93;4.13;;;;;;;;;;5057665;28;20098;-49
2022/01/24 14:21:09;;;;;;;7.03;5.55;;;;;;;;;;5056171;28;20012;-45
2022/01/24 14:23:36;;;;;;;13.40;7.93;;;;;;;;;;5057505;28;20769;-46
2022/01/24 14:26:14;;;;;;;14.63;9.80;;;;;;;;;;5056602;28;20168;-47
2022/01/24 14:28:39;;;;;;;4.95;4.22;;;;;;;;;;5057084;28;20036;-46
2022/01/24 14:31:10;;;;;;;10.82;8.88;;;;;;;;;;5056644;28;20025;-47
2022/01/24 14:33:36;;;;;;;7.60;6.47;;;;;;;;;;5058492;28;20485;-47
2022/01/24 14:36:05;;;;;;;11.52;7.57;;;;;;;;;;5054610;28;20028;-49
2022/01/24 14:38:32;;;;;;;10.45;8.65;;;;;;;;;;5057501;28;20050;-48
2022/01/24 14:41:01;;;;;;;14.25;11.35;;;;;;;;;;5057051;28;20548;-48
2022/01/24 14:46:16;;;;;;;29.05;25.70;;;;;;;;;;5060052;28;20092;-44
2022/01/24 14:48:46;;;;;;;29.15;24.77;;;;;;;;;;5059147;28;20020;-44
2022/01/24 14:51:11;;;;;;;27.35;20.38;;;;;;;;;;5058412;28;20114;-49
2022/01/24 14:53:37;;;;;;;36.28;29.92;;;;;;;;;;5053544;28;20071;-47
2022/01/24 14:56:03;;;;;;;23.67;19.55;;;;;;;;;;5055667;28;20548;-47
2022/01/24 14:58:28;;;;;;;29.33;22.55;;;;;;;;;;5061779;28;20035;-46
2022/01/24 15:00:53;;;;;;;22.83;20.15;;;;;;;;;;5053288;28;20033;-48
2022/01/24 15:03:19;;;;;;;49.00;29.15;;;;;;;;;;5061340;28;20029;-48
2022/01/24 15:05:44;;;;;;;39.55;31.60;;;;;;;;;;5057741;28;20562;-49
2022/01/24 15:08:10;;;;;;;29.73;21.95;;;;;;;;;;5060499;28;20467;-49
2022/01/24 15:10:35;;;;;;;21.88;18.98;;;;;;;;;;5058014;28;20052;-46
2022/01/24 15:13:04;;;;;;;17.30;15.60;;;;;;;;;;5055372;28;20021;-44
2022/01/24 15:15:32;;;;;;;16.13;13.80;;;;;;;;;;5056719;28;20023;-44
2022/01/24 15:26:17;;;;;;;7.15;6.20;;;;;;;;;;5051173;28;20044;-49
2022/01/24 15:28:42;;;;;;;11.63;10.43;;;;;;;;;;5058204;28;20024;-48
2022/01/24 15:31:07;;;;;;;13.80;10.75;;;;;;;;;;5058037;28;20013;-44
2022/01/24 15:33:33;;;;;;;35.50;29.65;;;;;;;;;;5058609;28;20031;-44
2022/01/24 15:35:58;;;;;;;17.90;14.68;;;;;;;;;;5054088;28;20021;-47
2022/01/24 15:38:23;;;;;;;16.90;15.20;;;;;;;;;;5055691;28;20040;-48
2022/01/24 15:40:49;;;;;;;8.85;6.07;;;;;;;;;;5056962;28;20035;-45
2022/01/24 15:43:39;;;;;;;6.22;4.35;;;;;;;;;;5056381;28;20035;-45
2022/01/24 15:48:25;;;;;;;21.17;7.15;;;;;;;;;;5053095;28;20514;-48
2022/01/24 15:50:50;;;;;;;4.22;3.10;;;;;;;;;;5058123;28;20028;-47
2022/01/24 15:53:15;;;;;;;11.32;8.02;;;;;;;;;;5052622;28;20033;-47
2022/01/24 15:55:50;;;;;;;11.27;7.55;;;;;;;;;;5054829;28;20051;-46
2022/01/24 15:58:16;;;;;;;17.20;11.75;;;;;;;;;;5055287;28;20029;-49
2022/01/24 16:00:42;;;;;;;10.15;5.68;;;;;;;;;;5057634;28;20032;-50
2022/01/24 16:03:08;;;;;;;11.23;7.18;;;;;;;;;;5057278;28;20025;-45
2022/01/24 16:05:34;;;;;;;7.95;5.45;;;;;;;;;;5054579;28;20028;-45
2022/01/24 16:08:00;;;;;;;8.20;4.97;;;;;;;;;;5051033;28;20213;-46
2022/01/24 16:10:27;;;;;;;15.57;7.85;;;;;;;;;;5056754;28;20675;-50
2022/01/24 16:12:52;;;;;;;5.28;4.28;;;;;;;;;;5061876;28;20052;-53
2022/01/24 16:15:20;;;;;;;18.25;8.10;;;;;;;;;;5058753;28;20092;-53
2022/01/24 16:17:47;;;;;;;9.52;6.10;;;;;;;;;;5060885;28;20021;-51
2022/01/24 16:20:39;;;;;;;5.60;3.97;;;;;;;;;;5055719;28;20021;-52
2022/01/24 16:25:34;;;;;;;7.90;3.03;;;;;;;;;;5059044;28;20031;-46
2022/01/24 16:28:15;;;;;;;5.40;4.45;;;;;;;;;;5059732;28;20040;-47
2022/01/24 16:30:42;;;;;;;25.27;11.68;;;;;;;;;;5057525;28;20025;-46
2022/01/24 16:33:08;;;;;;;6.72;4.93;;;;;;;;;;5055855;28;20248;-45
2022/01/24 16:35:34;;;;;;;10.30;4.10;;;;;;;;;;5053064;28;20691;-43
2022/01/24 16:38:00;;;;;;;26.33;19.60;;;;;;;;;;5057820;28;20052;-46
2022/01/24 16:40:32;;;;;;;12.38;7.85;;;;;;;;;;5054892;28;20043;-43
2022/01/24 16:48:19;;;;;;;7.35;5.70;;;;;;;;;;5045757;28;20029;-45
2022/01/24 16:50:44;;;;;;;6.80;3.95;;;;;;;;;;5053444;28;20525;-43
2022/01/24 16:53:14;;;;;;;9.52;6.22;;;;;;;;;;5050913;28;20057;-49
2022/01/24 16:55:39;;;;;;;7.57;5.63;;;;;;;;;;5052743;28;20391;-43
2022/01/24 16:58:05;;;;;;;6.63;5.95;;;;;;;;;;5057537;28;20065;-43